Time;durP1;ratioP1;P1;durP2;ratioP2;P2;SDS_P1;SDS_P2;PMS_P1;PMS_P2;Temp;Humidity;BMP_temperature;BMP_pressure;BME280_temperature;BME280_humidity;BME280_pressure;Samples;Min_cycle;Max_cycle;Signal;HPM_P1;HPM_P2
2021/06/14 00:02:22;;;;;;;20.10;4.80;;;;;;;10.42;74.41;99449.66;2170957;82;21011;-82
2021/06/14 00:05:23;;;;;;;10.77;4.53;;;;;;;10.38;74.66;99458.23;2170142;82;20924;-82
2021/06/14 00:08:23;;;;;;;10.43;4.67;;;;;;;10.35;74.73;99449.04;2170575;82;20972;-82
2021/06/14 00:11:24;;;;;;;12.50;5.40;;;;;;;10.32;74.46;99446.36;2170144;82;20943;-82
2021/06/14 00:14:25;;;;;;;9.23;4.80;;;;;;;10.29;74.75;99446.29;2170197;82;21388;-82
2021/06/14 00:17:26;;;;;;;11.13;4.53;;;;;;;10.27;74.58;99446.68;2170151;82;20968;-82
2021/06/14 00:20:28;;;;;;;14.10;5.27;;;;;;;10.24;74.73;99446.61;2161190;81;21058;-82
2021/06/14 00:23:29;;;;;;;11.73;5.13;;;;;;;10.20;74.82;99446.97;2149074;83;20979;-82
2021/06/14 00:26:29;;;;;;;11.10;4.67;;;;;;;10.17;74.98;99450.77;2149029;83;21311;-82
2021/06/14 00:29:30;;;;;;;10.13;4.57;;;;;;;10.14;74.63;99452.89;2149175;83;20889;-82
2021/06/14 00:32:32;;;;;;;7.87;4.77;;;;;;;10.11;74.69;99451.94;2149148;83;20984;-82
2021/06/14 00:35:33;;;;;;;15.90;4.50;;;;;;;10.11;74.76;99458.46;2149168;83;20935;-82
2021/06/14 00:38:34;;;;;;;10.30;4.77;;;;;;;10.08;74.89;99454.05;2149047;83;20924;-83
2021/06/14 00:41:34;;;;;;;13.53;5.13;;;;;;;10.04;74.86;99457.44;2149063;83;20908;-82
2021/06/14 00:44:35;;;;;;;13.90;5.43;;;;;;;10.00;74.88;99469.94;2149001;83;21029;-80
2021/06/14 00:47:36;;;;;;;10.93;5.40;;;;;;;9.93;74.95;99469.34;2148936;83;20956;-81
2021/06/14 00:50:37;;;;;;;29.10;7.47;;;;;;;10.11;75.90;99471.50;2148933;82;20991;-82
2021/06/14 00:53:38;;;;;;;17.37;7.10;;;;;;;10.08;74.94;99473.61;2148960;83;20955;-81
2021/06/14 00:56:40;;;;;;;12.20;7.50;;;;;;;9.98;75.15;99471.63;2148855;83;21301;-81
2021/06/14 00:59:41;;;;;;;17.27;6.80;;;;;;;9.88;74.99;99473.14;2149074;83;20901;-82
2021/06/14 01:02:42;;;;;;;14.50;7.07;;;;;;;9.80;75.10;99472.06;2149140;83;20963;-81
2021/06/14 01:05:43;;;;;;;18.47;6.43;;;;;;;9.74;75.12;99477.13;2148997;83;20928;-81
2021/06/14 01:08:44;;;;;;;12.77;6.03;;;;;;;9.70;75.34;99475.29;2149214;83;20955;-82
2021/06/14 01:11:45;;;;;;;9.93;5.67;;;;;;;9.70;75.45;99473.10;2149270;83;20924;-82
2021/06/14 01:14:46;;;;;;;14.37;6.33;;;;;;;9.67;75.43;99474.33;2149121;83;20900;-82
2021/06/14 01:17:46;;;;;;;11.87;5.73;;;;;;;9.62;75.02;99477.23;2149231;83;20893;-82
2021/06/14 01:20:48;;;;;;;12.90;6.20;;;;;;;9.49;75.01;99477.31;2164800;81;21036;-82
2021/06/14 01:23:49;;;;;;;13.23;5.50;;;;;;;9.39;75.00;99477.91;2183789;82;20984;-82
2021/06/14 01:26:50;;;;;;;7.73;5.50;;;;;;;9.33;75.25;99482.54;2183769;82;20955;-82
2021/06/14 01:29:51;;;;;;;15.07;5.63;;;;;;;9.33;75.36;99481.23;2183465;82;20908;-81
2021/06/14 01:32:52;;;;;;;13.83;5.60;;;;;;;9.31;75.81;99476.83;2183635;82;21272;-82
2021/06/14 01:35:53;;;;;;;20.37;6.23;;;;;;;9.32;75.75;99476.87;2183548;82;20947;-82
2021/06/14 01:38:53;;;;;;;10.67;4.43;;;;;;;9.32;75.93;99482.08;2183475;82;20916;-83
2021/06/14 01:41:54;;;;;;;11.73;4.73;;;;;;;9.31;75.88;99478.13;2183608;82;21292;-81
2021/06/14 01:44:56;;;;;;;16.27;5.17;;;;;;;9.30;76.06;99474.64;2183452;82;21031;-82
2021/06/14 01:47:58;;;;;;;10.17;4.77;;;;;;;9.28;76.08;99476.33;2183731;82;20928;-82
2021/06/14 01:50:59;;;;;;;10.47;5.17;;;;;;;9.27;76.03;99474.56;2183022;80;21407;-79
2021/06/14 01:54:03;;;;;;;9.87;4.80;;;;;;;9.23;76.08;99473.59;2183066;82;20912;-82
2021/06/14 01:57:03;;;;;;;13.95;5.03;;;;;;;9.22;76.25;99477.46;2184785;82;20999;-82
2021/06/14 02:00:04;;;;;;;13.43;6.57;;;;;;;9.21;76.40;99471.79;2184750;82;20960;-81
2021/06/14 02:03:05;;;;;;;11.40;5.27;;;;;;;9.16;76.07;99469.06;2184196;82;20967;-82
2021/06/14 02:06:06;;;;;;;8.23;5.30;;;;;;;9.15;76.27;99478.13;2184253;82;20888;-81
2021/06/14 02:09:09;;;;;;;12.73;5.93;;;;;;;9.08;76.70;99480.98;2184813;82;21023;-81
2021/06/14 02:12:10;;;;;;;11.93;5.97;;;;;;;9.03;76.64;99476.49;2184505;82;21000;-80
2021/06/14 02:15:11;;;;;;;12.47;5.67;;;;;;;9.00;76.69;99487.70;2183831;82;20976;-82
2021/06/14 02:18:12;;;;;;;13.63;7.40;;;;;;;8.94;76.58;99476.70;2183633;82;20889;-82
2021/06/14 02:21:13;;;;;;;15.93;7.43;;;;;;;8.91;76.90;99483.54;2176640;80;21040;-82
2021/06/14 02:24:14;;;;;;;20.83;6.43;;;;;;;8.88;76.80;99484.34;2170802;82;20989;-82
2021/06/14 02:27:15;;;;;;;18.90;6.90;;;;;;;8.87;76.80;99477.36;2170814;82;20936;-83
2021/06/14 02:30:16;;;;;;;10.63;6.33;;;;;;;8.83;76.23;99482.44;2170871;82;20956;-82
2021/06/14 02:33:17;;;;;;;14.37;6.80;;;;;;;8.78;76.25;99491.42;2170889;82;20960;-82
2021/06/14 02:36:19;;;;;;;13.00;7.30;;;;;;;8.75;76.68;99487.42;2170454;82;20909;-81
2021/06/14 02:39:20;;;;;;;15.60;7.70;;;;;;;8.70;75.97;99491.61;2170627;82;21098;-81
2021/06/14 02:42:21;;;;;;;13.93;6.13;;;;;;;8.62;76.12;99487.87;2169928;82;20965;-81
2021/06/14 02:45:22;;;;;;;12.60;5.97;;;;;;;8.58;76.29;99490.80;2170116;82;20952;-79
2021/06/14 02:48:24;;;;;;;11.40;6.33;;;;;;;8.59;76.24;99490.37;2170294;82;20952;-82
2021/06/14 02:51:25;;;;;;;17.30;7.10;;;;;;;8.63;76.41;99493.54;2170659;81;20978;-83
2021/06/14 02:54:26;;;;;;;13.13;6.67;;;;;;;8.63;76.28;99485.73;2170981;82;20928;-84
2021/06/14 02:57:28;;;;;;;13.00;6.87;;;;;;;8.63;76.63;99484.42;2170761;82;21008;-83
2021/06/14 03:00:29;;;;;;;18.43;7.50;;;;;;;8.64;76.58;99484.89;2170686;82;20980;-81
2021/06/14 03:03:30;;;;;;;17.23;8.00;;;;;;;8.68;76.98;99476.79;2170099;82;20976;-81
2021/06/14 03:06:31;;;;;;;17.63;8.10;;;;;;;8.75;77.07;99483.52;2169522;82;20924;-77
2021/06/14 03:09:32;;;;;;;12.20;7.17;;;;;;;8.80;76.95;99482.35;2170592;82;20956;-83
2021/06/14 03:12:33;;;;;;;12.83;8.10;;;;;;;8.86;76.84;99487.31;2170927;82;20893;-83
2021/06/14 03:15:34;;;;;;;17.10;8.63;;;;;;;8.91;76.84;99481.82;2170929;82;20927;-83
2021/06/14 03:18:35;;;;;;;16.77;8.63;;;;;;;8.96;76.90;99491.48;2170662;82;20941;-83
2021/06/14 03:21:37;;;;;;;15.47;8.57;;;;;;;9.01;76.85;99499.00;2174201;82;21086;-82
2021/06/14 03:24:38;;;;;;;19.23;7.50;;;;;;;9.05;76.83;99495.23;2145662;82;20972;-82
2021/06/14 03:27:39;;;;;;;17.17;8.17;;;;;;;9.13;76.86;99492.84;2177279;82;20956;-83
2021/06/14 03:30:40;;;;;;;16.70;8.27;;;;;;;9.17;76.72;99501.20;2177320;82;20985;-83
2021/06/14 03:33:41;;;;;;;13.97;7.67;;;;;;;9.21;76.77;99503.05;2177005;82;20976;-80
2021/06/14 03:36:42;;;;;;;15.20;7.23;;;;;;;9.27;76.77;99500.61;2176925;82;20940;-81
2021/06/14 03:39:43;;;;;;;18.10;7.73;;;;;;;9.32;76.84;99499.44;2177031;82;21004;-81
2021/06/14 03:42:44;;;;;;;13.67;6.73;;;;;;;9.37;76.84;99497.41;2176592;82;21008;-82
2021/06/14 03:45:45;;;;;;;11.50;6.40;;;;;;;9.38;76.76;99491.36;2176295;82;20948;-82
2021/06/14 03:48:46;;;;;;;18.17;7.63;;;;;;;9.42;76.80;99494.93;2177923;82;21007;-80
2021/06/14 03:51:47;;;;;;;16.23;6.90;;;;;;;9.95;79.35;99482.41;2178690;80;20983;-80
2021/06/14 03:54:48;;;;;;;14.27;7.27;;;;;;;10.91;77.53;99480.73;2177818;82;21039;-81
2021/06/14 03:57:50;;;;;;;12.43;6.47;;;;;;;11.82;75.85;99478.59;2177060;82;20943;-83
2021/06/14 04:00:51;;;;;;;13.70;6.37;;;;;;;11.96;72.86;99476.20;2176863;82;21028;-84
2021/06/14 04:04:07;;;;;;;16.73;8.00;;;;;;;11.67;71.96;99482.22;2177005;82;20980;-84
2021/06/14 04:06:55;;;;;;;12.15;6.17;;;;;;;11.48;71.98;99481.00;2173089;82;21388;-84
2021/06/14 04:09:59;;;;;;;9.40;6.42;;;;;;;11.40;72.27;99483.91;2177792;81;21083;-84
2021/06/14 04:13:00;;;;;;;10.45;5.20;;;;;;;11.39;72.29;99490.87;2177969;82;20992;-84
2021/06/14 04:16:01;;;;;;;9.53;5.05;;;;;;;11.47;72.31;99497.12;2177616;81;20984;-83
2021/06/14 04:19:02;;;;;;;10.55;5.30;;;;;;;11.64;72.28;99499.16;2177292;82;20971;-81
2021/06/14 04:22:03;;;;;;;9.45;5.53;;;;;;;11.75;72.00;99501.53;2172953;81;21043;-81
2021/06/14 04:25:04;;;;;;;13.48;6.15;;;;;;;11.86;71.75;99502.63;2171059;82;21031;-81
2021/06/14 04:31:08;;;;;;;10.98;5.20;;;;;;;12.11;70.93;99498.69;2150943;82;20964;-83
2021/06/14 04:34:09;;;;;;;12.47;5.10;;;;;;;12.17;70.68;99503.17;2170631;82;20996;-83
2021/06/14 04:37:10;;;;;;;8.00;4.40;;;;;;;12.34;70.37;99505.63;2169872;82;20955;-82
2021/06/14 04:40:11;;;;;;;8.80;4.75;;;;;;;12.42;69.83;99502.69;2169927;82;21000;-82
2021/06/14 04:43:12;;;;;;;8.85;4.92;;;;;;;12.50;69.53;99506.73;2148951;82;21281;-82
2021/06/14 04:46:13;;;;;;;9.93;5.12;;;;;;;12.55;69.09;99509.87;2169929;82;20939;-82
2021/06/14 04:49:14;;;;;;;8.60;4.72;;;;;;;12.60;69.13;99508.19;2170040;82;21328;-82
2021/06/14 04:52:16;;;;;;;26.65;5.30;;;;;;;12.74;69.01;99507.95;2170246;81;21007;-83
2021/06/14 04:55:17;;;;;;;7.60;4.55;;;;;;;12.81;68.45;99506.73;2170966;82;20981;-82
2021/06/14 04:58:18;;;;;;;9.73;4.67;;;;;;;12.91;68.50;99501.62;2170633;82;21375;-82
2021/06/14 05:01:19;;;;;;;8.95;4.80;;;;;;;13.07;67.54;99503.61;2171423;82;20987;-82
2021/06/14 05:04:20;;;;;;;10.53;4.65;;;;;;;13.11;66.64;99503.22;2170711;82;21357;-81
2021/06/14 05:07:23;;;;;;;7.75;4.40;;;;;;;13.23;66.88;99503.39;2150703;82;20934;-82
2021/06/14 05:10:27;;;;;;;9.73;4.58;;;;;;;13.36;66.35;99500.48;2170791;82;20960;-81
2021/06/14 05:13:29;;;;;;;14.87;4.58;;;;;;;13.43;66.37;99503.62;2170778;82;20991;-82
2021/06/14 05:16:30;;;;;;;14.95;4.58;;;;;;;13.57;66.30;99495.46;2171466;82;20944;-82
2021/06/14 05:22:34;;;;;;;10.03;4.33;;;;;;;13.76;64.93;99502.20;2145892;82;20968;-83
2021/06/14 05:25:36;;;;;;;6.85;3.90;;;;;;;13.82;64.75;99500.52;2170709;82;20988;-82
2021/06/14 05:28:38;;;;;;;9.78;4.47;;;;;;;13.96;64.54;99498.92;2170384;82;21016;-83
2021/06/14 05:31:40;;;;;;;11.05;3.90;;;;;;;14.11;65.03;99501.23;2170555;82;20917;-83
2021/06/14 05:34:41;;;;;;;8.55;4.03;;;;;;;14.18;63.63;99497.35;2170118;82;21360;-83
2021/06/14 05:37:42;;;;;;;10.53;4.62;;;;;;;14.12;63.63;99493.80;2170811;82;21325;-80
2021/06/14 05:40:43;;;;;;;9.68;4.25;;;;;;;14.31;63.51;99495.70;2170590;82;20976;-81
2021/06/14 05:43:44;;;;;;;7.55;4.25;;;;;;;14.49;62.88;99500.23;2170830;82;21101;-82
2021/06/14 05:46:45;;;;;;;8.48;4.45;;;;;;;14.72;63.62;99495.11;2171026;82;20936;-82
2021/06/14 05:49:47;;;;;;;6.37;3.80;;;;;;;14.93;61.92;99502.70;2170870;82;21011;-81
2021/06/14 05:52:48;;;;;;;7.55;3.67;;;;;;;15.13;61.91;99505.42;2170462;82;21023;-81
2021/06/14 05:55:50;;;;;;;9.80;3.80;;;;;;;15.36;62.06;99498.05;2170453;82;20980;-81
2021/06/14 05:58:54;;;;;;;7.65;3.62;;;;;;;15.54;61.44;99500.72;2170330;82;21004;-82
2021/06/14 06:01:55;;;;;;;9.13;3.77;;;;;;;15.67;59.89;99501.25;2170406;82;21298;-80
2021/06/14 06:04:56;;;;;;;14.98;4.42;;;;;;;15.73;60.10;99500.39;2170439;82;20967;-82
2021/06/14 06:07:58;;;;;;;11.38;4.03;;;;;;;15.84;59.85;99495.58;2170512;82;20988;-80
2021/06/14 06:10:59;;;;;;;7.37;3.90;;;;;;;16.02;59.99;99490.76;2170534;82;20932;-82
2021/06/14 06:14:01;;;;;;;7.42;3.70;;;;;;;16.16;59.06;99490.76;2170799;82;20976;-82
2021/06/14 06:17:02;;;;;;;8.23;3.65;;;;;;;16.28;59.38;99499.97;2169950;82;20999;-79
2021/06/14 06:20:03;;;;;;;8.83;3.58;;;;;;;16.40;58.25;99495.12;2170701;82;21004;-81
2021/06/14 06:26:12;;;;;;;7.10;3.55;;;;;;;16.65;57.15;99492.95;2170992;81;21320;-80
2021/06/14 06:29:13;;;;;;;7.72;3.47;;;;;;;16.78;56.71;99495.11;2193375;81;21423;-80
2021/06/14 06:32:15;;;;;;;9.45;3.42;;;;;;;16.86;57.20;99486.73;2193289;81;20936;-81
2021/06/14 06:35:17;;;;;;;8.60;3.30;;;;;;;16.91;55.74;99484.97;2193274;81;20983;-81
2021/06/14 06:38:19;;;;;;;9.53;3.25;;;;;;;16.96;56.80;99480.55;2193189;81;21019;-79
2021/06/14 06:41:21;;;;;;;6.35;3.25;;;;;;;17.10;56.29;99487.09;2193414;81;20999;-80
2021/06/14 06:44:22;;;;;;;5.60;3.12;;;;;;;17.19;55.58;99473.41;2193610;81;21314;-80
2021/06/14 06:47:30;;;;;;;5.72;2.60;;;;;;;17.31;55.30;99472.47;2193228;81;21359;-82
2021/06/14 06:50:31;;;;;;;7.72;3.42;;;;;;;17.46;54.27;99460.55;2193561;80;20943;-82
2021/06/14 06:53:33;;;;;;;10.30;2.87;;;;;;;17.53;53.65;99469.74;2193745;81;21018;-80
2021/06/14 06:56:34;;;;;;;8.55;3.22;;;;;;;17.49;53.90;99467.13;2193572;81;20943;-81
2021/06/14 06:59:35;;;;;;;7.37;3.15;;;;;;;17.69;53.68;99469.66;2193901;81;20999;-82
2021/06/14 07:02:36;;;;;;;6.20;2.87;;;;;;;17.73;52.01;99466.56;2193761;81;21319;-81
2021/06/14 07:05:37;;;;;;;6.37;2.83;;;;;;;17.94;52.79;99474.77;2194011;81;20963;-80
2021/06/14 07:08:38;;;;;;;4.12;2.45;;;;;;;18.09;52.67;99475.52;2194091;81;21011;-81
2021/06/14 07:11:40;;;;;;;11.75;2.87;;;;;;;18.12;50.44;99473.30;2193955;81;20920;-81
2021/06/14 07:14:44;;;;;;;6.78;3.00;;;;;;;18.18;51.99;99476.33;2193894;81;20907;-81
2021/06/14 07:20:48;;;;;;;9.35;2.40;;;;;;;18.40;50.14;99464.25;2171499;80;20923;-79
2021/06/14 07:23:50;;;;;;;11.05;2.77;;;;;;;18.59;50.85;99465.38;2192916;81;20991;-80
2021/06/14 07:26:51;;;;;;;6.90;2.70;;;;;;;18.67;50.81;99458.28;2192969;81;21003;-80
2021/06/14 07:29:52;;;;;;;5.50;2.77;;;;;;;18.86;51.00;99462.91;2193004;81;20920;-82
2021/06/14 07:32:53;;;;;;;5.45;2.22;;;;;;;18.88;49.92;99455.38;2193320;81;20944;-81
2021/06/14 07:35:55;;;;;;;5.55;3.08;;;;;;;19.01;50.05;99449.05;2193200;81;21007;-81
2021/06/14 07:38:56;;;;;;;3.83;2.25;;;;;;;19.13;48.78;99463.05;2193650;81;20967;-80
2021/06/14 07:41:58;;;;;;;6.25;2.67;;;;;;;19.22;48.83;99460.28;2193338;81;21015;-80
2021/06/14 07:44:59;;;;;;;6.20;3.08;;;;;;;19.26;47.93;99449.63;2193406;81;20970;-80
2021/06/14 07:48:00;;;;;;;10.45;3.05;;;;;;;19.32;47.58;99457.94;2193400;81;20999;-81
2021/06/14 07:51:01;;;;;;;5.83;2.52;;;;;;;19.37;48.04;99441.55;2193319;80;20896;-82
2021/06/14 07:54:02;;;;;;;7.58;2.65;;;;;;;19.54;47.64;99455.89;2193258;81;21336;-80
2021/06/14 07:57:04;;;;;;;6.12;2.77;;;;;;;19.58;47.29;99450.53;2193480;81;20987;-80
2021/06/14 08:00:05;;;;;;;5.08;2.45;;;;;;;19.63;47.64;99453.98;2193219;81;20943;-81
2021/06/14 08:03:07;;;;;;;4.72;2.47;;;;;;;19.68;46.88;99457.89;2193537;81;20944;-78
2021/06/14 08:06:08;;;;;;;7.03;2.90;;;;;;;19.91;46.24;99462.83;2192315;81;20931;-80
2021/06/14 08:09:12;;;;;;;5.67;3.25;;;;;;;20.11;46.34;99466.05;2193393;81;20931;-81
2021/06/14 08:12:12;;;;;;;7.50;2.67;;;;;;;20.27;45.99;99457.39;2193221;81;20956;-80
2021/06/14 08:15:13;;;;;;;7.83;2.92;;;;;;;20.46;45.60;99453.53;2193666;81;21173;-80
2021/06/14 08:18:37;;;;;;;6.65;2.47;;;;;;;20.42;43.99;99452.30;2193247;81;21006;-81
2021/06/14 08:27:46;;;;;;;7.60;2.52;;;;;;;20.74;44.17;99460.52;2171059;81;21043;-80
2021/06/14 08:30:47;;;;;;;5.50;2.12;;;;;;;20.90;42.54;99472.61;2170755;82;20944;-82
2021/06/14 08:33:48;;;;;;;5.67;2.83;;;;;;;20.69;43.48;99457.08;2171079;82;21300;-80
2021/06/14 08:36:50;;;;;;;6.80;3.20;;;;;;;20.61;43.33;99455.90;2170471;82;20972;-82
2021/06/14 08:39:51;;;;;;;5.95;2.50;;;;;;;20.76;44.37;99461.36;2170099;81;21372;-81
2021/06/14 08:42:53;;;;;;;7.30;2.75;;;;;;;21.08;42.42;99462.52;2170406;82;21147;-81
2021/06/14 08:45:54;;;;;;;4.90;2.52;;;;;;;21.26;43.07;99451.55;2170383;82;20968;-81
2021/06/14 08:48:55;;;;;;;24.00;4.72;;;;;;;21.03;42.43;99455.98;2170470;82;20956;-80
2021/06/14 08:51:57;;;;;;;6.00;2.45;;;;;;;21.19;43.61;99455.20;2169681;81;20983;-81
2021/06/14 08:54:59;;;;;;;5.83;2.75;;;;;;;21.70;42.43;99453.23;2170162;82;20947;-81
2021/06/14 08:58:01;;;;;;;4.12;2.55;;;;;;;21.19;41.72;99459.19;2150126;82;20928;-81
2021/06/14 09:01:04;;;;;;;7.03;2.58;;;;;;;21.01;42.76;99456.47;2170676;82;20936;-81
2021/06/14 09:04:05;;;;;;;3.90;3.05;;;;;;;20.80;42.30;99456.41;2170209;82;20988;-79
2021/06/14 09:07:06;;;;;;;3.20;2.47;;;;;;;21.43;41.96;99449.84;2170443;82;20936;-81
2021/06/14 09:10:07;;;;;;;3.70;2.10;;;;;;;21.27;41.85;99455.95;2170278;81;20988;-80
2021/06/14 09:13:09;;;;;;;4.95;2.83;;;;;;;20.99;42.19;99452.52;2170062;82;20936;-80
2021/06/14 09:16:10;;;;;;;7.30;2.55;;;;;;;20.65;42.42;99456.72;2170240;82;20931;-80
2021/06/14 09:19:10;;;;;;;6.85;2.62;;;;;;;20.53;41.82;99460.92;2170142;82;20928;-81
2021/06/14 09:22:22;;;;;;;4.30;2.20;;;;;;;21.05;41.52;99445.33;2169724;81;21019;-80
2021/06/14 09:25:23;;;;;;;5.33;2.52;;;;;;;21.72;41.47;99439.45;2169598;82;20938;-81
2021/06/14 09:28:25;;;;;;;3.42;2.00;;;;;;;21.87;40.56;99444.84;2169948;82;21015;-81
2021/06/14 09:31:29;;;;;;;4.30;2.37;;;;;;;21.34;40.76;99448.27;2169729;82;20980;-80
2021/06/14 09:34:29;;;;;;;9.35;2.60;;;;;;;21.36;41.05;99450.89;2169301;82;20996;-80
2021/06/14 09:37:30;;;;;;;5.42;3.00;;;;;;;21.86;40.78;99445.30;2169312;82;21031;-80
2021/06/14 09:40:32;;;;;;;4.35;2.30;;;;;;;21.89;40.65;99439.91;2169178;82;20967;-79
2021/06/14 09:43:35;;;;;;;4.97;2.65;;;;;;;21.90;40.79;99433.69;2169868;82;20969;-82
2021/06/14 09:46:36;;;;;;;4.90;2.40;;;;;;;21.84;39.33;99432.97;2170114;82;20996;-82
2021/06/14 09:49:37;;;;;;;3.77;2.27;;;;;;;22.16;38.22;99433.06;2170021;82;20967;-82
2021/06/14 09:52:38;;;;;;;4.22;2.12;;;;;;;22.05;38.71;99429.81;2170156;80;21027;-79
2021/06/14 09:55:39;;;;;;;4.53;2.10;;;;;;;21.59;39.21;99425.55;2169573;82;20947;-79
2021/06/14 09:58:40;;;;;;;3.62;2.10;;;;;;;21.51;39.49;99430.17;2169130;82;20932;-80
2021/06/14 10:01:42;;;;;;;3.40;2.15;;;;;;;22.09;38.89;99438.58;2169639;82;20916;-81
2021/06/14 10:04:43;;;;;;;6.95;2.30;;;;;;;22.00;38.01;99430.34;2169514;82;21348;-77
2021/06/14 10:07:44;;;;;;;11.35;2.45;;;;;;;21.67;39.33;99429.35;2168842;82;21372;-78
2021/06/14 10:10:45;;;;;;;3.80;1.92;;;;;;;21.59;39.43;99429.53;2169704;82;20928;-78
2021/06/14 10:13:46;;;;;;;3.27;2.20;;;;;;;21.43;39.47;99424.16;2169384;82;20977;-80
2021/06/14 10:16:47;;;;;;;3.80;2.00;;;;;;;21.54;39.01;99425.23;2169674;82;20929;-80
2021/06/14 10:19:49;;;;;;;5.03;2.00;;;;;;;22.24;37.49;99408.48;2170032;82;20932;-80
2021/06/14 10:22:50;;;;;;;8.93;2.20;;;;;;;22.61;36.94;99407.97;2169914;81;21013;-78
2021/06/14 10:25:52;;;;;;;4.20;1.75;;;;;;;22.12;37.30;99424.75;2170229;82;20971;-79
2021/06/14 10:28:54;;;;;;;2.50;1.70;;;;;;;21.92;36.61;99420.36;2169552;82;21012;-80
2021/06/14 10:31:56;;;;;;;3.62;1.90;;;;;;;22.35;36.33;99427.27;2169542;82;20913;-80
2021/06/14 10:34:57;;;;;;;9.98;2.35;;;;;;;22.92;34.56;99404.87;2169613;82;20964;-80
2021/06/14 10:41:03;;;;;;;4.05;2.20;;;;;;;23.31;34.91;99405.92;2147845;82;21003;-79
2021/06/14 10:47:07;;;;;;;5.78;1.85;;;;;;;22.13;35.44;99420.30;2147056;82;21024;-81
2021/06/14 10:50:11;;;;;;;6.58;1.98;;;;;;;21.77;36.25;99413.64;2169940;82;20908;-79
2021/06/14 10:53:10;;;;;;;5.95;2.02;;;;;;;21.89;36.69;99418.66;2169609;82;20983;-81
2021/06/14 10:56:11;;;;;;;2.77;1.75;;;;;;;22.33;35.70;99402.04;2169877;82;21103;-81
2021/06/14 10:59:15;;;;;;;5.97;2.20;;;;;;;22.80;34.53;99392.80;2169469;82;21357;-79
2021/06/14 11:02:15;;;;;;;2.45;1.50;;;;;;;22.91;34.70;99391.14;2169095;82;20980;-80
2021/06/14 11:05:16;;;;;;;5.55;1.70;;;;;;;22.50;35.76;99399.79;2169332;82;21011;-80
2021/06/14 11:08:17;;;;;;;1.75;1.42;;;;;;;22.12;36.12;99390.19;2169141;82;21000;-80
2021/06/14 11:14:21;;;;;;;2.67;1.55;;;;;;;23.03;32.81;99381.92;2146386;82;21328;-81
2021/06/14 11:17:22;;;;;;;2.10;1.60;;;;;;;23.43;33.15;99374.94;2169253;82;21000;-81
2021/06/14 11:20:24;;;;;;;5.53;2.15;;;;;;;23.49;32.62;99376.06;2169722;82;21031;-80
2021/06/14 11:23:30;;;;;;;3.10;2.20;;;;;;;23.18;34.33;99379.66;2169174;81;21048;-80
2021/06/14 11:26:28;;;;;;;5.55;2.00;;;;;;;22.57;35.72;99373.92;2168841;82;20968;-80
2021/06/14 11:29:29;;;;;;;6.85;2.22;;;;;;;21.96;36.44;99382.16;2170128;82;20976;-79
2021/06/14 11:32:30;;;;;;;8.38;2.40;;;;;;;21.72;36.61;99376.14;2171048;82;20960;-79
2021/06/14 11:35:31;;;;;;;5.08;2.37;;;;;;;22.07;36.46;99364.64;2169617;82;20997;-79
2021/06/14 11:38:32;;;;;;;4.80;2.30;;;;;;;22.62;36.21;99361.36;2168263;82;21127;-78
2021/06/14 11:41:33;;;;;;;5.80;2.40;;;;;;;23.26;36.26;99364.78;2169538;82;20956;-82
2021/06/14 11:44:34;;;;;;;2.80;2.20;;;;;;;23.43;34.94;99366.48;2170167;82;20929;-80
2021/06/14 11:47:36;;;;;;;5.47;2.80;;;;;;;23.07;34.42;99356.95;2169901;82;21008;-82
2021/06/14 11:50:36;;;;;;;5.55;1.80;;;;;;;22.73;35.34;99355.27;2170139;82;20976;-82
2021/06/14 11:53:38;;;;;;;2.37;1.80;;;;;;;22.31;34.60;99360.45;2169832;81;20989;-81
2021/06/14 11:56:39;;;;;;;3.58;1.62;;;;;;;22.11;35.00;99360.52;2169835;82;21011;-83
2021/06/14 11:59:41;;;;;;;4.22;2.25;;;;;;;22.78;33.59;99348.02;2169846;82;21079;-82
2021/06/14 12:05:55;;;;;;;10.18;2.45;;;;;;;23.75;32.03;99341.93;2123677;82;20928;-83
2021/06/14 12:09:00;;;;;;;4.05;1.77;;;;;;;23.18;32.94;99348.17;2169378;82;21012;-79
2021/06/14 12:12:01;;;;;;;5.30;1.95;;;;;;;22.47;33.82;99357.31;2169589;82;20947;-84
2021/06/14 12:15:03;;;;;;;8.78;2.22;;;;;;;22.21;33.85;99351.84;2169675;82;20948;-81
2021/06/14 12:18:04;;;;;;;3.40;2.02;;;;;;;22.59;34.10;99340.16;2170467;82;21284;-82
2021/06/14 12:21:05;;;;;;;3.77;1.77;;;;;;;23.15;33.47;99340.27;2169985;82;20992;-81
2021/06/14 12:24:06;;;;;;;4.42;1.90;;;;;;;23.72;32.60;99335.38;2182529;81;21026;-76
2021/06/14 12:27:07;;;;;;;3.70;1.90;;;;;;;24.15;32.09;99328.95;2192777;81;20954;-82
2021/06/14 12:30:09;;;;;;;2.62;1.60;;;;;;;23.99;30.52;99330.42;2192501;81;21440;-80
2021/06/14 12:33:13;;;;;;;2.40;1.60;;;;;;;23.58;32.19;99339.83;2193144;81;21316;-83
2021/06/14 12:36:13;;;;;;;7.25;1.98;;;;;;;23.41;31.39;99332.81;2193351;81;21375;-79
2021/06/14 12:39:15;;;;;;;3.20;1.80;;;;;;;23.25;31.15;99328.41;2193080;81;20967;-80
2021/06/14 12:42:15;;;;;;;3.72;1.90;;;;;;;23.49;30.76;99327.65;2192634;81;20945;-82
2021/06/14 12:45:17;;;;;;;3.25;1.82;;;;;;;23.68;31.66;99320.41;2191977;81;20908;-80
2021/06/14 12:48:18;;;;;;;3.80;1.80;;;;;;;23.85;32.11;99323.37;2192196;81;21367;-82
2021/06/14 12:51:23;;;;;;;1.87;1.65;;;;;;;23.93;30.45;99324.44;2192434;81;21351;-82
2021/06/14 12:54:24;;;;;;;2.92;1.80;;;;;;;23.91;31.28;99317.82;2192267;80;20978;-83
2021/06/14 12:57:25;;;;;;;3.65;1.75;;;;;;;23.52;31.14;99326.67;2192939;81;20984;-84
2021/06/14 13:00:43;;;;;;;7.75;2.17;;;;;;;23.71;31.96;99324.30;2192815;81;20907;-84
2021/06/14 13:03:44;;;;;;;2.00;1.80;;;;;;;23.82;31.13;99333.67;2192796;81;20927;-82
2021/06/14 13:06:46;;;;;;;2.47;1.75;;;;;;;23.21;31.69;99317.44;2192811;81;20936;-82
2021/06/14 13:09:48;;;;;;;2.95;1.60;;;;;;;23.10;31.53;99319.12;2192856;81;20939;-84
2021/06/14 13:12:48;;;;;;;3.02;1.75;;;;;;;23.33;31.27;99318.38;2192312;81;21023;-82
2021/06/14 13:15:49;;;;;;;5.87;2.30;;;;;;;23.76;31.37;99303.69;2192483;81;20932;-80
2021/06/14 13:18:51;;;;;;;2.62;1.67;;;;;;;24.21;30.44;99302.53;2192397;81;20975;-83
2021/06/14 13:21:53;;;;;;;3.92;1.95;;;;;;;24.29;29.12;99303.66;2193044;81;20972;-83
2021/06/14 13:24:54;;;;;;;3.37;2.00;;;;;;;23.78;29.65;99300.52;2175009;80;21048;-82
2021/06/14 13:27:55;;;;;;;3.92;1.70;;;;;;;23.92;30.72;99306.23;2170219;82;20956;-83
2021/06/14 13:30:56;;;;;;;1.75;1.55;;;;;;;24.13;29.97;99303.27;2170391;82;20912;-83
2021/06/14 13:34:06;;;;;;;3.65;2.00;;;;;;;24.36;29.85;99294.50;2170527;81;20965;-84
2021/06/14 13:37:01;;;;;;;2.65;1.65;;;;;;;24.48;30.32;99288.70;2169575;82;21324;-82
2021/06/14 13:40:02;;;;;;;5.92;2.50;;;;;;;24.54;29.95;99284.47;2170290;82;21140;-83
2021/06/14 13:43:03;;;;;;;3.47;1.87;;;;;;;24.28;30.71;99288.11;2170502;82;20959;-83
2021/06/14 13:46:04;;;;;;;9.10;2.92;;;;;;;24.11;30.26;99287.78;2170100;82;21654;-82
2021/06/14 13:49:05;;;;;;;4.28;2.12;;;;;;;23.90;31.48;99286.75;2170062;82;20953;-82
2021/06/14 13:52:06;;;;;;;3.47;1.80;;;;;;;23.51;30.84;99300.95;2170448;82;20937;-81
2021/06/14 13:55:07;;;;;;;4.22;2.42;;;;;;;23.15;31.63;99291.01;2170157;81;20991;-82
2021/06/14 13:58:08;;;;;;;2.25;1.98;;;;;;;23.27;32.10;99288.41;2169814;82;20988;-82
2021/06/14 14:01:10;;;;;;;3.60;1.82;;;;;;;23.83;31.88;99274.56;2169919;82;20988;-83
2021/06/14 14:04:11;;;;;;;2.92;2.17;;;;;;;24.22;30.82;99280.73;2170445;82;20979;-84
2021/06/14 14:07:12;;;;;;;6.60;1.98;;;;;;;24.28;30.06;99287.23;2170203;82;20947;-83
2021/06/14 14:10:13;;;;;;;3.45;1.67;;;;;;;24.09;30.67;99289.17;2169877;82;21036;-83
2021/06/14 14:13:14;;;;;;;3.00;1.80;;;;;;;23.98;30.51;99281.16;2170170;82;20919;-84
2021/06/14 14:16:15;;;;;;;6.95;1.95;;;;;;;24.45;30.39;99292.82;2169938;82;20943;-84
2021/06/14 14:19:16;;;;;;;3.02;1.85;;;;;;;24.74;29.37;99275.69;2170045;82;20959;-83
2021/06/14 14:22:17;;;;;;;2.47;1.62;;;;;;;24.85;29.34;99269.47;2170392;82;21340;-82
2021/06/14 14:25:18;;;;;;;4.33;1.80;;;;;;;25.11;29.09;99261.78;2169108;81;21011;-81
2021/06/14 14:28:19;;;;;;;4.37;1.95;;;;;;;25.40;28.67;99256.14;2169512;82;21020;-85
2021/06/14 14:31:21;;;;;;;2.77;1.90;;;;;;;25.48;28.42;99256.28;2169448;82;21000;-83
2021/06/14 14:34:22;;;;;;;5.60;1.90;;;;;;;24.88;28.94;99264.47;2169922;82;21008;-82
2021/06/14 14:37:22;;;;;;;3.72;2.20;;;;;;;24.45;29.53;99261.67;2169901;82;20925;-80
2021/06/14 14:40:25;;;;;;;6.47;2.00;;;;;;;24.16;29.92;99265.82;2170060;82;20900;-82
2021/06/14 14:43:26;;;;;;;4.05;2.10;;;;;;;24.28;31.13;99256.56;2169891;82;20980;-82